createdAt,value
2018-09-20T00:00:07.201Z,96213.00
2018-09-20T00:02:38.125Z,96206.00
2018-09-20T00:05:11.522Z,96211.00
2018-09-20T00:07:42.037Z,96206.00
2018-09-20T00:10:12.355Z,96213.00
2018-09-20T00:12:42.989Z,96201.00
2018-09-20T00:15:13.363Z,96206.00
2018-09-20T00:17:44.223Z,96209.00
2018-09-20T00:20:15.806Z,96207.00
2018-09-20T00:22:47.568Z,96208.00
2018-09-20T00:25:17.953Z,96201.00
2018-09-20T00:27:49.280Z,96199.00
2018-09-20T00:30:20.573Z,96200.00
2018-09-20T00:32:51.835Z,96194.00
2018-09-20T00:35:22.777Z,96195.00
2018-09-20T00:37:54.079Z,96193.00
2018-09-20T00:40:25.311Z,96197.00
2018-09-20T00:42:56.681Z,96197.00
2018-09-20T00:45:27.252Z,96192.00
2018-09-20T00:47:58.341Z,96201.00
2018-09-20T00:50:29.596Z,96203.00
2018-09-20T00:53:01.632Z,96203.00
2018-09-20T00:55:31.866Z,96203.00
2018-09-20T00:58:03.159Z,96139.00
2018-09-20T01:00:33.650Z,96199.00
2018-09-20T01:03:04.637Z,96199.00
2018-09-20T01:05:35.991Z,96193.00
2018-09-20T01:08:07.139Z,96191.00
2018-09-20T01:10:38.968Z,96192.00
2018-09-20T01:13:09.257Z,96194.00
2018-09-20T01:15:40.002Z,96203.00
2018-09-20T01:18:10.490Z,96197.00
2018-09-20T01:20:41.714Z,96191.00
2018-09-20T01:23:12.043Z,96193.00
2018-09-20T01:25:43.267Z,96190.00
2018-09-20T01:28:15.283Z,96191.00
2018-09-20T01:30:47.487Z,96189.00
2018-09-20T01:33:17.854Z,96191.00
2018-09-20T01:35:48.399Z,96184.00
2018-09-20T01:38:18.838Z,95860.00
2018-09-20T01:40:49.180Z,96094.00
2018-09-20T01:43:19.803Z,96186.00
2018-09-20T01:45:50.189Z,96194.00
2018-09-20T01:48:20.560Z,96186.00
2018-09-20T01:50:51.297Z,96186.00
2018-09-20T01:53:21.628Z,96188.00
2018-09-20T01:55:52.047Z,96185.00
2018-09-20T01:58:22.421Z,96191.00
2018-09-20T02:00:52.958Z,96191.00
2018-09-20T02:03:23.246Z,96190.00
2018-09-20T02:05:53.584Z,96185.00
2018-09-20T02:08:23.865Z,96189.00
2018-09-20T02:10:54.235Z,96185.00
2018-09-20T02:13:24.526Z,96187.00
2018-09-20T02:15:54.898Z,96190.00
2018-09-20T02:18:25.305Z,96184.00
2018-09-20T02:20:55.633Z,96186.00
2018-09-20T02:23:26.003Z,96191.00
2018-09-20T02:25:56.354Z,96185.00
2018-09-20T02:28:26.884Z,96183.00
2018-09-20T02:30:57.229Z,96192.00
2018-09-20T02:33:27.621Z,96189.00
2018-09-20T02:35:57.941Z,96193.00
2018-09-20T02:38:28.323Z,96196.00
2018-09-20T02:40:58.681Z,96193.00
2018-09-20T02:43:29.024Z,96194.00
2018-09-20T02:45:59.705Z,96195.00
2018-09-20T02:48:30.390Z,96188.00
2018-09-20T02:51:00.710Z,96194.00
2018-09-20T02:53:31.047Z,96190.00
2018-09-20T02:56:01.422Z,96187.00
2018-09-20T02:58:31.763Z,96187.00
2018-09-20T03:01:02.105Z,96187.00
2018-09-20T03:03:32.409Z,96193.00
2018-09-20T03:06:02.818Z,96182.00
2018-09-20T03:08:33.150Z,96185.00
2018-09-20T03:11:03.777Z,96183.00
2018-09-20T03:13:34.132Z,96177.00
2018-09-20T03:16:04.773Z,96183.00
2018-09-20T03:18:35.143Z,96183.00
2018-09-20T03:21:05.546Z,96173.00
2018-09-20T03:23:36.261Z,96180.00
2018-09-20T03:26:06.986Z,96176.00
2018-09-20T03:28:37.509Z,96181.00
2018-09-20T03:31:08.477Z,96181.00
2018-09-20T03:33:38.806Z,96180.00
2018-09-20T03:36:10.019Z,96186.00
2018-09-20T03:38:40.531Z,96185.00
2018-09-20T03:41:10.893Z,96189.00
2018-09-20T03:43:41.293Z,96182.00
2018-09-20T03:46:11.577Z,96177.00
2018-09-20T03:48:42.074Z,96183.00
2018-09-20T03:51:12.382Z,96181.00
2018-09-20T03:53:43.023Z,96183.00
2018-09-20T03:56:13.593Z,96186.00
2018-09-20T03:58:44.026Z,96186.00
2018-09-20T04:01:14.299Z,96182.00
2018-09-20T04:03:45.108Z,96179.00
2018-09-20T04:06:15.410Z,96179.00
2018-09-20T04:08:45.936Z,96178.00
2018-09-20T04:11:16.274Z,96184.00
2018-09-20T04:13:46.578Z,96183.00
2018-09-20T04:16:17.193Z,96176.00
2018-09-20T04:18:47.499Z,96191.00
2018-09-20T04:21:23.646Z,96175.00
2018-09-20T04:23:53.957Z,96176.00
2018-09-20T04:26:24.469Z,96179.00
2018-09-20T04:28:54.798Z,96184.00
2018-09-20T04:31:25.857Z,96183.00
2018-09-20T04:33:56.580Z,96181.00
2018-09-20T04:36:27.023Z,96175.00
2018-09-20T04:38:57.414Z,96177.00
2018-09-20T04:41:27.772Z,96182.00
2018-09-20T04:43:58.091Z,96181.00
2018-09-20T04:46:28.424Z,96186.00
2018-09-20T04:48:58.730Z,96187.00
2018-09-20T04:51:29.169Z,96183.00
2018-09-20T04:53:59.594Z,96184.00
2018-09-20T04:56:29.978Z,96184.00
2018-09-20T04:59:00.313Z,96187.00
2018-09-20T05:01:30.721Z,96196.00
2018-09-20T05:04:01.030Z,96193.00
2018-09-20T05:06:31.455Z,96186.00
2018-09-20T05:09:01.807Z,96207.00
2018-09-20T05:11:33.030Z,96195.00
2018-09-20T05:14:03.365Z,96200.00
2018-09-20T05:16:48.846Z,96209.00
2018-09-20T05:19:19.188Z,96189.00
2018-09-20T05:21:49.564Z,96191.00
2018-09-20T05:24:19.934Z,96210.00
2018-09-20T05:26:50.325Z,96200.00
2018-09-20T05:29:20.637Z,96192.00
2018-09-20T05:31:51.023Z,96199.00
2018-09-20T05:34:21.362Z,96190.00
2018-09-20T05:36:51.862Z,96194.00
2018-09-20T05:39:22.179Z,96192.00
2018-09-20T05:41:52.666Z,96192.00
2018-09-20T05:44:23.153Z,96200.00
2018-09-20T05:46:53.533Z,96201.00
2018-09-20T05:49:23.958Z,96203.00
2018-09-20T05:51:54.284Z,96205.00
2018-09-20T05:54:24.623Z,96198.00
2018-09-20T05:56:54.981Z,96200.00
2018-09-20T05:59:25.375Z,96204.00
2018-09-20T06:01:55.729Z,96199.00
2018-09-20T06:04:26.051Z,96195.00
2018-09-20T06:06:56.439Z,96201.00
2018-09-20T06:09:26.806Z,96203.00
2018-09-20T06:11:57.149Z,96199.00
2018-09-20T06:14:27.506Z,96198.00
2018-09-20T06:16:57.818Z,96200.00
2018-09-20T06:19:28.249Z,96207.00
2018-09-20T06:21:58.590Z,96201.00
2018-09-20T06:24:29.250Z,96196.00
2018-09-20T06:27:00.441Z,96201.00
2018-09-20T06:29:30.790Z,96216.00
2018-09-20T06:32:01.140Z,96201.00
2018-09-20T06:34:31.733Z,96200.00
2018-09-20T06:37:02.177Z,96197.00
2018-09-20T06:39:38.993Z,96201.00
2018-09-20T06:42:09.350Z,96194.00
2018-09-20T06:44:40.009Z,96195.00
2018-09-20T06:47:10.702Z,96201.00
2018-09-20T06:49:41.183Z,96200.00
2018-09-20T06:52:18.108Z,96202.00
2018-09-20T06:54:48.519Z,96204.00
2018-09-20T06:57:18.815Z,96208.00
2018-09-20T06:59:49.154Z,96195.00
2018-09-20T07:02:20.681Z,96207.00
2018-09-20T07:04:51.090Z,96200.00
2018-09-20T07:07:21.522Z,96202.00
2018-09-20T07:09:52.036Z,96198.00
2018-09-20T07:12:22.498Z,96199.00
2018-09-20T07:14:53.118Z,96197.00
2018-09-20T07:17:23.499Z,96198.00
2018-09-20T07:19:54.183Z,96200.00
2018-09-20T07:22:24.595Z,96184.00
2018-09-20T07:24:55.050Z,96195.00
2018-09-20T07:27:25.468Z,96198.00
2018-09-20T07:29:55.759Z,96196.00
2018-09-20T07:32:26.165Z,96200.00
2018-09-20T07:34:57.020Z,96206.00
2018-09-20T07:37:27.355Z,96212.00
2018-09-20T07:39:57.718Z,96198.00
2018-09-20T07:42:28.154Z,96204.00
2018-09-20T07:44:58.922Z,96202.00
2018-09-20T07:47:29.337Z,96207.00
2018-09-20T07:49:59.721Z,96207.00
2018-09-20T07:52:30.741Z,96208.00
2018-09-20T07:55:01.128Z,96203.00
2018-09-20T07:57:31.585Z,96199.00
2018-09-20T08:00:03.194Z,96197.00
2018-09-20T08:02:33.510Z,96196.00
2018-09-20T08:05:03.958Z,96195.00
2018-09-20T08:07:34.655Z,96192.00
2018-09-20T08:10:05.096Z,96195.00
2018-09-20T08:12:36.181Z,96196.00
2018-09-20T08:15:06.983Z,96198.00
2018-09-20T08:17:37.758Z,96186.00
2018-09-20T08:20:08.205Z,96190.00
2018-09-20T08:22:39.112Z,96191.00
2018-09-20T08:25:10.581Z,96189.00
2018-09-20T08:27:42.662Z,96193.00
2018-09-20T08:30:17.300Z,96197.00
2018-09-20T08:32:53.225Z,96190.00
2018-09-20T08:35:25.116Z,96197.00
2018-09-20T08:37:55.403Z,96193.00
2018-09-20T08:40:25.718Z,96195.00
2018-09-20T08:42:56.079Z,96191.00
2018-09-20T08:45:26.446Z,96193.00
2018-09-20T08:47:56.802Z,96195.00
2018-09-20T08:50:27.156Z,96197.00
2018-09-20T08:52:57.715Z,96198.00
2018-09-20T08:55:28.347Z,96197.00
2018-09-20T08:57:58.715Z,96191.00
2018-09-20T09:00:29.071Z,96200.00
2018-09-20T09:02:59.423Z,96194.00
2018-09-20T09:05:29.782Z,96187.00
2018-09-20T09:08:00.146Z,96187.00
2018-09-20T09:10:30.499Z,96183.00
2018-09-20T09:13:00.863Z,96185.00
2018-09-20T09:15:31.233Z,96184.00
2018-09-20T09:18:01.593Z,96180.00
2018-09-20T09:20:31.906Z,96183.00
2018-09-20T09:23:02.225Z,96179.00
2018-09-20T09:25:32.619Z,96178.00
2018-09-20T09:28:03.026Z,96173.00
2018-09-20T09:30:33.346Z,96171.00
2018-09-20T09:33:03.707Z,96172.00
2018-09-20T09:35:34.150Z,96170.00
2018-09-20T09:38:04.547Z,96170.00
2018-09-20T09:40:35.054Z,96165.00
2018-09-20T09:43:06.326Z,96159.00
2018-09-20T09:45:40.229Z,96168.00
2018-09-20T09:48:10.590Z,96163.00
2018-09-20T09:50:41.013Z,96160.00
2018-09-20T09:53:11.338Z,96163.00
2018-09-20T09:55:42.034Z,96162.00
2018-09-20T09:58:12.342Z,96153.00
2018-09-20T10:00:43.183Z,96156.00
2018-09-20T10:03:13.593Z,96152.00
2018-09-20T10:05:44.087Z,96150.00
2018-09-20T10:08:14.810Z,96155.00
2018-09-20T10:10:45.242Z,96145.00
2018-09-20T10:13:15.692Z,96150.00
2018-09-20T10:15:46.074Z,96148.00
2018-09-20T10:18:16.441Z,96144.00
2018-09-20T10:20:46.746Z,96140.00
2018-09-20T10:23:17.229Z,96143.00
2018-09-20T10:25:47.645Z,96143.00
2018-09-20T10:28:18.648Z,96139.00
2018-09-20T10:30:48.975Z,96131.00
2018-09-20T10:33:20.218Z,96139.00
2018-09-20T10:35:50.657Z,96131.00
2018-09-20T10:38:21.023Z,96133.00
2018-09-20T10:40:51.423Z,96128.00
2018-09-20T10:43:21.818Z,96125.00
2018-09-20T10:45:52.189Z,96127.00
2018-09-20T10:48:22.567Z,96118.00
2018-09-20T10:50:52.997Z,96117.00
2018-09-20T10:53:23.386Z,96115.00
2018-09-20T10:55:53.768Z,96125.00
2018-09-20T10:58:24.139Z,96115.00
2018-09-20T11:00:54.715Z,96114.00
2018-09-20T11:03:25.203Z,96106.00
2018-09-20T11:05:55.522Z,96114.00
2018-09-20T11:08:25.825Z,96106.00
2018-09-20T11:10:56.286Z,96108.00
2018-09-20T11:13:27.003Z,96103.00
2018-09-20T11:16:00.173Z,96099.00
2018-09-20T11:18:32.734Z,96098.00
2018-09-20T11:21:04.033Z,96100.00
2018-09-20T11:23:35.615Z,96102.00
2018-09-20T11:26:09.323Z,96115.00
2018-09-20T11:28:42.453Z,96109.00
2018-09-20T11:31:13.402Z,96107.00
2018-09-20T11:34:03.016Z,96096.00
2018-09-20T11:36:34.883Z,96091.00
2018-09-20T11:39:11.390Z,96096.00
2018-09-20T11:41:42.777Z,96099.00
2018-09-20T11:44:13.934Z,96100.00
2018-09-20T11:46:44.924Z,96109.00
2018-09-20T11:49:16.206Z,96099.00
2018-09-20T11:51:47.786Z,96092.00
2018-09-20T11:54:18.850Z,96088.00
2018-09-20T11:56:49.799Z,96087.00
2018-09-20T11:59:21.071Z,96083.00
2018-09-20T12:01:52.118Z,96083.00
2018-09-20T12:04:23.289Z,96088.00
2018-09-20T12:06:55.138Z,96078.00
2018-09-20T12:09:26.629Z,96082.00
2018-09-20T12:11:57.307Z,96075.00
2018-09-20T12:14:28.315Z,96068.00
2018-09-20T12:16:59.502Z,96068.00
2018-09-20T12:19:56.349Z,96065.00
2018-09-20T12:22:34.063Z,96064.00
2018-09-20T12:25:06.502Z,96052.00
2018-09-20T12:27:37.827Z,96051.00
2018-09-20T12:30:10.098Z,96050.00
2018-09-20T12:32:42.258Z,96048.00
2018-09-20T12:35:13.310Z,96041.00
2018-09-20T12:37:43.963Z,96039.00
2018-09-20T12:40:16.288Z,96038.00
2018-09-20T12:42:47.789Z,96031.00
2018-09-20T12:45:18.619Z,96035.00
2018-09-20T12:47:51.089Z,96030.00
2018-09-20T12:50:21.943Z,96031.00
2018-09-20T12:52:53.819Z,96037.00
2018-09-20T12:55:25.100Z,96025.00
2018-09-20T12:57:56.421Z,96026.00
2018-09-20T13:00:30.287Z,96034.00
2018-09-20T13:03:15.653Z,96024.00
2018-09-20T13:05:48.316Z,96023.00
2018-09-20T13:08:18.933Z,96016.00
2018-09-20T13:10:49.867Z,96021.00
2018-09-20T13:13:20.849Z,96010.00
2018-09-20T13:15:52.102Z,96007.00
2018-09-20T13:18:24.735Z,96004.00
2018-09-20T13:21:14.560Z,96005.00
2018-09-20T13:23:46.117Z,96007.00
2018-09-20T13:26:17.238Z,96006.00
2018-09-20T13:28:48.157Z,96000.00
2018-09-20T13:31:19.547Z,95995.00
2018-09-20T13:33:52.412Z,95992.00
2018-09-20T13:36:23.991Z,95993.00
2018-09-20T13:39:00.003Z,95989.00
2018-09-20T13:41:36.967Z,95991.00
2018-09-20T13:44:12.278Z,95987.00
2018-09-20T13:46:43.437Z,95979.00
2018-09-20T13:49:47.873Z,95977.00
2018-09-20T13:52:18.973Z,95973.00
2018-09-20T13:54:49.499Z,95978.00
2018-09-20T13:57:19.974Z,95980.00
2018-09-20T13:59:52.425Z,95979.00
2018-09-20T14:02:23.545Z,95967.00
2018-09-20T14:04:54.294Z,95963.00
2018-09-20T14:07:25.073Z,95967.00
2018-09-20T14:09:58.035Z,95964.00
2018-09-20T14:12:29.903Z,95970.00
2018-09-20T14:15:12.064Z,95966.00
2018-09-20T14:17:45.314Z,95967.00
2018-09-20T14:20:19.159Z,95962.00
2018-09-20T14:22:49.986Z,95955.00
2018-09-20T14:25:21.632Z,95955.00
2018-09-20T14:27:54.041Z,95954.00
2018-09-20T14:30:24.442Z,95960.00
2018-09-20T14:32:54.879Z,95952.00
2018-09-20T14:35:25.325Z,95950.00
2018-09-20T14:37:59.870Z,95943.00
2018-09-20T14:40:30.311Z,95945.00
2018-09-20T14:43:00.753Z,95943.00
2018-09-20T14:45:31.137Z,95942.00
2018-09-20T14:48:01.525Z,95933.00
2018-09-20T14:50:31.841Z,95926.00
2018-09-20T14:53:02.378Z,95925.00
2018-09-20T14:55:32.783Z,95923.00
2018-09-20T14:58:03.518Z,95933.00
2018-09-20T15:00:34.001Z,95918.00
2018-09-20T15:03:07.950Z,95917.00
2018-09-20T15:05:42.097Z,95918.00
2018-09-20T15:08:16.992Z,95909.00
2018-09-20T15:10:48.370Z,95917.00
2018-09-20T15:13:18.739Z,95900.00
2018-09-20T15:15:49.358Z,95901.00
2018-09-20T15:18:19.963Z,95901.00
2018-09-20T15:20:50.617Z,95894.00
2018-09-20T15:23:21.043Z,95886.00
2018-09-20T15:25:51.838Z,95900.00
2018-09-20T15:28:23.104Z,95899.00
2018-09-20T15:30:55.462Z,95864.00
2018-09-20T15:33:32.958Z,95893.00
2018-09-20T15:36:05.377Z,95894.00
2018-09-20T15:38:36.642Z,95888.00
2018-09-20T15:41:10.379Z,95882.00
2018-09-20T15:43:55.288Z,95889.00
2018-09-20T15:46:47.557Z,95875.00
2018-09-20T15:49:29.175Z,95883.00
2018-09-20T15:52:01.315Z,95882.00
2018-09-20T15:54:38.762Z,95881.00
2018-09-20T15:57:16.241Z,95874.00
2018-09-20T15:59:58.644Z,95873.00
2018-09-20T16:02:35.406Z,95868.00
2018-09-20T16:05:13.233Z,95875.00
2018-09-20T16:07:46.715Z,95871.00
2018-09-20T16:10:40.056Z,95871.00
2018-09-20T16:13:11.939Z,95866.00
2018-09-20T16:15:46.367Z,95862.00
2018-09-20T16:18:20.984Z,95866.00
2018-09-20T16:20:54.219Z,95857.00
2018-09-20T16:23:27.746Z,95862.00
2018-09-20T16:25:59.706Z,95856.00
2018-09-20T16:28:57.939Z,95864.00
2018-09-20T16:31:57.746Z,95867.00
2018-09-20T16:36:55.066Z,95861.00
2018-09-20T16:39:29.930Z,95862.00
2018-09-20T16:42:03.483Z,95850.00
2018-09-20T16:44:35.655Z,95852.00
2018-09-20T16:47:08.766Z,95848.00
2018-09-20T16:49:44.245Z,95846.00
2018-09-20T16:52:15.182Z,95849.00
2018-09-20T16:54:46.846Z,95852.00
2018-09-20T16:57:21.189Z,95846.00
2018-09-20T16:59:55.776Z,95851.00
2018-09-20T17:02:27.569Z,95850.00
2018-09-20T17:05:00.177Z,95858.00
2018-09-20T17:07:39.612Z,95859.00
2018-09-20T17:10:11.293Z,95852.00
2018-09-20T17:12:46.586Z,95855.00
2018-09-20T17:15:25.385Z,95857.00
2018-09-20T17:18:00.546Z,95851.00
2018-09-20T17:20:44.729Z,95847.00
2018-09-20T17:23:23.195Z,95855.00
2018-09-20T17:25:56.878Z,95858.00
2018-09-20T17:28:28.402Z,95862.00
2018-09-20T17:31:00.525Z,95844.00
2018-09-20T17:33:35.583Z,95849.00
2018-09-20T17:36:18.089Z,95844.00
2018-09-20T17:38:52.294Z,95842.00
2018-09-20T17:41:32.073Z,95851.00
2018-09-20T17:44:19.154Z,95856.00
2018-09-20T17:48:34.025Z,95852.00
2018-09-20T17:51:16.178Z,95850.00
2018-09-20T17:54:00.549Z,95856.00
2018-09-20T17:56:31.945Z,95857.00
2018-09-20T17:59:03.044Z,95856.00
2018-09-20T18:01:34.657Z,95855.00
2018-09-20T18:04:05.368Z,95853.00
2018-09-20T18:06:36.143Z,95855.00
2018-09-20T18:09:09.577Z,95857.00
2018-09-20T18:11:40.452Z,95859.00
2018-09-20T18:14:11.083Z,95863.00
2018-09-20T18:16:42.438Z,95867.00
2018-09-20T18:19:13.482Z,95852.00
2018-09-20T18:21:44.074Z,95857.00
2018-09-20T18:24:17.717Z,95848.00
2018-09-20T18:26:51.848Z,95857.00
2018-09-20T18:29:24.487Z,95858.00
2018-09-20T18:31:56.683Z,95859.00
2018-09-20T18:34:27.438Z,95859.00
2018-09-20T18:36:59.860Z,96069.00
2018-09-20T18:39:32.454Z,95858.00
2018-09-20T18:42:03.055Z,95872.00
2018-09-20T18:44:33.873Z,95860.00
2018-09-20T18:47:04.311Z,95860.00
2018-09-20T18:49:34.678Z,95857.00
2018-09-20T18:52:05.250Z,95858.00
2018-09-20T18:54:35.737Z,95872.00
2018-09-20T18:57:06.358Z,95864.00
2018-09-20T18:59:36.965Z,95855.00
2018-09-20T19:02:09.507Z,95861.00
2018-09-20T19:05:11.167Z,95863.00
2018-09-20T19:07:48.949Z,95868.00
2018-09-20T19:10:26.296Z,95859.00
2018-09-20T19:13:07.987Z,95852.00
2018-09-20T19:15:43.590Z,95851.00
2018-09-20T19:18:15.125Z,95858.00
2018-09-20T19:20:46.785Z,95852.00
2018-09-20T19:23:19.218Z,95858.00
2018-09-20T19:25:50.312Z,95857.00
2018-09-20T19:28:21.855Z,95855.00
2018-09-20T19:30:53.387Z,95852.00
2018-09-20T19:33:25.382Z,95843.00
2018-09-20T19:35:57.207Z,95844.00
2018-09-20T19:38:29.013Z,95856.00
2018-09-20T19:40:59.969Z,95844.00
2018-09-20T19:43:30.855Z,95856.00
2018-09-20T19:46:01.626Z,95853.00
2018-09-20T19:48:36.762Z,95852.00
2018-09-20T19:51:08.122Z,95853.00
2018-09-20T19:53:39.934Z,95856.00
2018-09-20T19:56:17.169Z,95858.00
2018-09-20T19:58:48.614Z,95849.00
2018-09-20T20:01:20.331Z,95849.00
2018-09-20T20:10:54.888Z,95857.00
2018-09-20T20:13:27.371Z,95853.00
2018-09-20T20:15:59.445Z,95847.00
2018-09-20T20:18:30.830Z,95847.00
2018-09-20T20:21:10.416Z,95842.00
2018-09-20T20:23:41.759Z,95851.00
2018-09-20T20:26:12.941Z,95849.00
2018-09-20T20:28:46.017Z,95847.00
2018-09-20T20:31:18.629Z,95843.00
2018-09-20T20:33:50.302Z,95845.00
2018-09-20T20:36:21.406Z,95838.00
2018-09-20T20:38:51.831Z,95837.00
2018-09-20T20:41:23.122Z,95834.00
2018-09-20T20:43:54.350Z,95832.00
2018-09-20T20:46:24.988Z,95834.00
2018-09-20T20:48:56.395Z,95831.00
2018-09-20T20:51:26.949Z,95829.00
2018-09-20T20:53:58.575Z,95822.00
2018-09-20T20:56:29.162Z,95826.00
2018-09-20T20:59:07.047Z,95830.00
2018-09-20T21:01:40.754Z,95827.00
2018-09-20T21:04:13.262Z,95820.00
2018-09-20T21:06:45.740Z,95823.00
2018-09-20T21:09:17.249Z,95819.00
2018-09-20T21:11:49.573Z,95822.00
2018-09-20T21:14:20.010Z,95820.00
2018-09-20T21:16:51.214Z,95819.00
2018-09-20T21:19:22.995Z,95818.00
2018-09-20T21:21:53.959Z,95818.00
2018-09-20T21:24:24.512Z,95805.00
2018-09-20T21:26:58.148Z,95806.00
2018-09-20T21:29:29.238Z,95812.00
2018-09-20T21:32:00.484Z,95806.00
2018-09-20T21:34:31.762Z,95806.00
2018-09-20T21:37:05.266Z,95800.00
2018-09-20T21:39:36.070Z,95800.00
2018-09-20T21:42:11.176Z,95805.00
2018-09-20T21:44:52.167Z,95798.00
2018-09-20T21:47:23.555Z,95794.00
2018-09-20T21:49:54.234Z,95800.00
2018-09-20T21:52:29.937Z,95784.00
2018-09-20T21:55:05.611Z,95784.00
2018-09-20T21:57:37.677Z,95785.00
2018-09-20T22:00:09.852Z,95784.00
2018-09-20T22:05:27.071Z,95783.00
2018-09-20T22:07:57.514Z,95780.00
2018-09-20T22:10:27.967Z,95776.00
2018-09-20T22:12:58.947Z,95773.00
2018-09-20T22:15:30.162Z,95773.00
2018-09-20T22:18:01.378Z,95771.00
2018-09-20T22:20:33.552Z,95763.00
2018-09-20T22:23:04.371Z,95760.00
2018-09-20T22:25:35.487Z,95759.00
2018-09-20T22:28:08.163Z,95751.00
2018-09-20T22:30:39.465Z,95755.00
2018-09-20T22:33:09.842Z,95758.00
2018-09-20T22:35:41.511Z,95743.00
2018-09-20T22:38:12.546Z,95749.00
2018-09-20T22:40:47.764Z,95754.00
2018-09-20T22:43:19.272Z,95748.00
2018-09-20T22:45:51.337Z,95754.00
2018-09-20T22:48:22.516Z,95748.00
2018-09-20T22:50:54.379Z,95743.00
2018-09-20T22:53:25.520Z,95739.00
2018-09-20T22:55:59.418Z,95739.00
2018-09-20T22:58:30.161Z,95728.00
2018-09-20T23:01:00.601Z,95727.00
2018-09-20T23:03:32.066Z,95730.00
2018-09-20T23:06:02.636Z,95732.00
2018-09-20T23:08:33.340Z,95729.00
2018-09-20T23:11:03.725Z,95728.00
2018-09-20T23:13:34.727Z,95732.00
2018-09-20T23:16:05.089Z,95739.00
2018-09-20T23:18:35.479Z,95724.00
2018-09-20T23:21:06.019Z,95724.00
2018-09-20T23:23:36.638Z,95726.00
2018-09-20T23:26:07.634Z,95730.00
2018-09-20T23:28:38.136Z,95726.00
2018-09-20T23:31:09.754Z,95726.00
2018-09-20T23:33:40.228Z,95719.00
2018-09-20T23:36:10.601Z,95721.00
2018-09-20T23:38:41.462Z,95710.00
2018-09-20T23:41:12.175Z,95710.00
2018-09-20T23:43:43.654Z,95706.00
2018-09-20T23:46:14.101Z,95705.00
2018-09-20T23:48:46.490Z,95702.00
2018-09-20T23:51:17.360Z,95696.00
2018-09-20T23:53:48.101Z,95689.00
2018-09-20T23:56:18.827Z,95695.00
2018-09-20T23:58:49.706Z,95687.00
